createdAt,value
2024-03-04T00:21:02.537Z,1006.73
2024-03-04T00:49:28.097Z,1007.02
2024-03-04T01:17:38.271Z,1007.48
2024-03-04T01:45:59.492Z,1007.95
2024-03-04T02:14:19.137Z,1008.2
2024-03-04T02:42:40.615Z,1008.48
2024-03-04T03:10:56.392Z,1008.83
2024-03-04T03:39:10.624Z,1008.96
2024-03-04T04:07:29.528Z,1009.27
2024-03-04T04:35:40.944Z,1009.68
2024-03-04T05:04:37.788Z,1009.84
2024-03-04T05:32:21.055Z,1010.21
2024-03-04T06:00:39.664Z,1010.62
2024-03-04T06:28:53.935Z,1010.96
2024-03-04T06:57:14.410Z,1011.3
2024-03-04T07:25:36.827Z,1011.66
2024-03-04T07:53:59.779Z,1011.91
2024-03-04T08:23:00.109Z,1012.27
2024-03-04T08:51:28.109Z,1012.57
2024-03-04T09:20:28.169Z,1012.48
2024-03-04T09:49:37.618Z,1012.54
2024-03-04T10:18:44.486Z,1012.77
2024-03-04T10:47:46.512Z,1012.8
2024-03-04T11:16:32.209Z,1012.92
2024-03-04T11:45:30.356Z,1012.97
2024-03-04T12:14:35.585Z,1013.11
2024-03-04T12:43:04.965Z,1012.93
2024-03-04T13:11:20.512Z,1012.69
2024-03-04T13:39:47.259Z,1012.57
2024-03-04T14:08:03.829Z,1012.3
2024-03-04T14:36:20.437Z,1012.25
2024-03-04T15:04:38.032Z,1012.25
2024-03-04T15:32:54.189Z,1012.32
2024-03-04T16:01:00.138Z,1012.4
2024-03-04T16:29:09.933Z,1012.56
2024-03-04T16:57:15.919Z,1012.56
2024-03-04T17:25:26.969Z,1012.89
2024-03-04T17:53:36.272Z,1013.07
2024-03-04T18:21:52.084Z,1013.09
2024-03-04T18:49:57.970Z,1013.27
2024-03-04T19:18:13.407Z,1013.46
2024-03-04T19:46:21.943Z,1013.55
2024-03-04T20:14:30.613Z,1013.77
2024-03-04T20:42:33.524Z,1013.79
2024-03-04T21:10:40.660Z,1013.78
2024-03-04T21:38:39.503Z,1013.9
2024-03-04T22:06:59.916Z,1013.89
2024-03-04T22:35:20.332Z,1013.95
2024-03-04T23:03:38.524Z,1013.83
2024-03-04T23:31:54.332Z,1013.85
